Terminal Aerodrome Forecast
Issued by NWS

Home | Current Version | Previous Version | Graphics & Text | Print | Product List | Glossary Off
Versions: 1 2 3 4 5 6 7 8 9 10 11 12 13 14 15 16 17 18 19 20 21 22 23 24 25 26 27 28 29 30 31 32 33 34 35 36 37 38

000
FTUS43 KLOT 230800 AAA
TAFMDW
TAF AMD
KMDW 230849Z 2309/2406 00000KT 5SM BR FEW005 BKN200
     FM231000 07003KT 3SM BR BKN005
     FM231400 10006KT P6SM SCT015 BKN200
     FM231900 08008KT P6SM BKN040
     FM240200 08005KT 6SM BR BKN250=

USA.gov is the U.S. government's official web portal to all federal, state and local government web resources and services.